Skip Navigation LinksHome page > Weather > Current weather Skip Navigation Links

Current Weather

Ronald Reagan Washington National, Washington

For information only: do not use for flight planning or navigation.
Latest weather
Observation time Sunday, October 23, 2016 5:52 PM EDT
Local time Sunday, October 23, 2016 6:01 PM EDT
Flight conditions Visual Meteorological Conditions
Wind direction South-Southwest (210°)
Wind speed 12 mph
Visibility 10 mi.
Sky condition
Ceiling unlimited
Cloud layer few clouds 7,500 ft.
Temperature 66°F
Dewpoint 44°F
Altimeter 29.98 in.Hg
Derived measurements
Relative humidity 45%
Density altitude 549 ft.
Sea-level pressure 29.98 in.Hg
Automated weather observing station with precipitation discriminator.
METAR KDCA 232152Z 21010KT 10SM FEW075 19/07 A2998 RMK AO2 SLP151 T01890067


Location code

InnerDrive.Weather 4.0.5722.1 Release CLR 4.0.30319.34209
Copyright ©2015 Inner Drive Technology. All rights reserved. Portions Copyright ©1986-2015 David Braverman.

Find weather

Site navigation

Skip Navigation Links

Place info

Page info

PayPal - The safer, easier way to pay online!

Return home.

Copyright ©2016 Inner Drive Technology. Purveyors of fine, hand-crafted computer software. Page printed 2016-10-23T22:01:21 UTC.